createdAt,value
2022-10-30T00:00:24.028Z,11.7
2022-10-30T00:01:30.226Z,11.7
2022-10-30T00:02:36.413Z,11.6
2022-10-30T00:03:42.582Z,11.6
2022-10-30T00:04:48.763Z,11.6
2022-10-30T00:05:55.059Z,11.6
2022-10-30T00:07:01.141Z,11.6
2022-10-30T00:08:07.332Z,11.6
2022-10-30T00:09:13.524Z,11.7
2022-10-30T00:10:18.735Z,11.7
2022-10-30T00:11:24.909Z,11.7
2022-10-30T00:12:31.095Z,11.7
2022-10-30T00:13:37.284Z,11.7
2022-10-30T00:14:43.471Z,11.7
2022-10-30T00:15:49.653Z,11.6
2022-10-30T00:16:55.846Z,11.7
2022-10-30T00:18:02.039Z,11.8
2022-10-30T00:19:08.231Z,11.9
2022-10-30T00:20:14.408Z,12
2022-10-30T00:21:20.882Z,12.1
2022-10-30T00:22:26.793Z,12.2
2022-10-30T00:23:32.983Z,12.2
2022-10-30T00:24:38.168Z,12.5
2022-10-30T00:25:44.354Z,12.5
2022-10-30T00:26:50.542Z,12.5
2022-10-30T00:27:56.739Z,12.4
2022-10-30T00:29:02.934Z,12.3
2022-10-30T00:30:09.135Z,12.3
2022-10-30T00:31:15.292Z,12.3
2022-10-30T00:32:21.497Z,12.3
2022-10-30T00:33:27.663Z,12.3
2022-10-30T00:34:33.851Z,12.3
2022-10-30T00:35:40.136Z,12.3
2022-10-30T00:36:46.268Z,12.4
2022-10-30T00:37:52.413Z,12.5
2022-10-30T00:38:57.653Z,12.5
2022-10-30T00:40:03.817Z,12.5
2022-10-30T00:41:09.991Z,12.5
2022-10-30T00:42:16.182Z,12.4
2022-10-30T00:43:22.367Z,12.4
2022-10-30T00:44:28.553Z,12.4
2022-10-30T00:45:34.763Z,12.4
2022-10-30T00:46:40.938Z,12.3
2022-10-30T00:47:47.105Z,12.3
2022-10-30T00:48:53.279Z,12.3
2022-10-30T00:49:59.484Z,12.2
2022-10-30T00:51:05.652Z,12.2
2022-10-30T00:52:11.858Z,12.1
2022-10-30T00:53:17.036Z,12.1
2022-10-30T00:54:23.297Z,12.1
2022-10-30T00:55:29.394Z,12.1
2022-10-30T00:56:35.588Z,12.1
2022-10-30T00:57:41.769Z,12.1
2022-10-30T00:58:47.935Z,12.1
2022-10-30T00:59:54.109Z,12.2
2022-10-30T01:01:00.292Z,12.2
2022-10-30T01:02:06.463Z,12.3
2022-10-30T01:03:12.656Z,12.3
2022-10-30T01:04:18.859Z,12.3
2022-10-30T01:05:25.016Z,12.3
2022-10-30T01:06:31.199Z,12.4
2022-10-30T01:07:36.423Z,12.5
2022-10-30T01:08:42.577Z,12.4
2022-10-30T01:09:48.750Z,12.4
2022-10-30T01:10:54.950Z,12.4
2022-10-30T01:12:01.106Z,12.4
2022-10-30T01:13:07.277Z,12.4
2022-10-30T01:14:13.531Z,12.4
2022-10-30T01:15:19.697Z,12.4
2022-10-30T01:16:25.822Z,12.5
2022-10-30T01:17:32.003Z,12.5
2022-10-30T01:18:38.219Z,12.5
2022-10-30T01:19:44.369Z,12.5
2022-10-30T01:20:50.578Z,12.5
2022-10-30T01:21:55.748Z,12.5
2022-10-30T01:23:01.922Z,12.5
2022-10-30T01:24:08.114Z,12.4
2022-10-30T01:25:14.348Z,12.4
2022-10-30T01:26:20.563Z,12.4
2022-10-30T01:27:26.664Z,12.3
2022-10-30T01:28:32.853Z,12.4
2022-10-30T01:29:39.055Z,12.4
2022-10-30T01:30:45.228Z,12.4
2022-10-30T01:31:51.475Z,12.3
2022-10-30T01:32:57.601Z,12.4
2022-10-30T01:34:03.790Z,12.5
2022-10-30T01:35:09.950Z,12.5
2022-10-30T01:36:15.179Z,12.5
2022-10-30T01:37:21.354Z,12.6
2022-10-30T01:38:27.518Z,12.7
2022-10-30T01:39:33.682Z,12.7
2022-10-30T01:40:39.869Z,12.7
2022-10-30T01:41:46.053Z,12.8
2022-10-30T01:42:52.250Z,12.9
2022-10-30T01:43:58.418Z,12.9
2022-10-30T01:45:04.595Z,12.9
2022-10-30T01:46:10.789Z,12.9
2022-10-30T01:47:17.006Z,12.8
2022-10-30T01:48:23.138Z,12.7
2022-10-30T01:49:29.320Z,12.5
2022-10-30T01:50:34.513Z,12.4
2022-10-30T01:51:40.704Z,12.4
2022-10-30T01:52:46.890Z,12.4
2022-10-30T01:53:53.061Z,12.4
2022-10-30T01:54:59.252Z,12.4
2022-10-30T01:56:05.426Z,12.4
2022-10-30T01:57:11.601Z,12.5
2022-10-30T01:58:17.780Z,12.5
2022-10-30T01:59:23.965Z,12.5
2022-10-30T02:00:30.166Z,12.5
2022-10-30T02:01:36.337Z,12.6
2022-10-30T02:02:42.500Z,12.6
2022-10-30T02:03:48.730Z,12.7
2022-10-30T02:04:53.878Z,12.7
2022-10-30T02:06:00.089Z,12.7
2022-10-30T02:07:06.243Z,12.7
2022-10-30T02:08:12.434Z,12.7
2022-10-30T02:09:18.613Z,12.8
2022-10-30T02:10:24.803Z,12.8
2022-10-30T02:11:29.989Z,12.9
2022-10-30T02:12:36.201Z,12.9
2022-10-30T02:13:42.362Z,12.9
2022-10-30T02:14:48.546Z,12.9
2022-10-30T02:15:54.724Z,12.9
2022-10-30T02:17:00.897Z,12.8
2022-10-30T02:18:07.134Z,12.7
2022-10-30T02:19:13.256Z,12.8
2022-10-30T02:20:19.461Z,12.9
2022-10-30T02:21:25.658Z,12.9
2022-10-30T02:22:31.808Z,12.9
2022-10-30T02:23:37.991Z,13
2022-10-30T02:24:44.184Z,13
2022-10-30T02:25:49.389Z,13.1
2022-10-30T02:26:55.548Z,13.1
2022-10-30T02:28:01.737Z,13.1
2022-10-30T02:29:07.912Z,13.1
2022-10-30T02:30:14.121Z,13.1
2022-10-30T02:31:20.284Z,13.2
2022-10-30T02:32:26.452Z,13.1
2022-10-30T02:33:32.634Z,13.1
2022-10-30T02:34:38.808Z,13.2
2022-10-30T02:35:44.989Z,13.1
2022-10-30T02:36:51.167Z,13.1
2022-10-30T02:37:57.353Z,13
2022-10-30T02:39:03.529Z,13
2022-10-30T02:40:08.716Z,12.9
2022-10-30T02:41:14.931Z,12.8
2022-10-30T02:42:21.188Z,12.8
2022-10-30T02:43:27.233Z,12.7
2022-10-30T02:44:33.410Z,12.7
2022-10-30T02:45:39.594Z,12.7
2022-10-30T02:46:45.778Z,12.6
2022-10-30T02:47:51.984Z,12.6
2022-10-30T02:48:58.116Z,12.6
2022-10-30T02:50:04.293Z,12.5
2022-10-30T02:51:10.468Z,12.5
2022-10-30T02:52:16.648Z,12.5
2022-10-30T02:53:22.826Z,12.5
2022-10-30T02:54:28.017Z,12.5
2022-10-30T02:55:34.200Z,12.6
2022-10-30T02:56:40.381Z,12.6
2022-10-30T02:57:46.609Z,12.6
2022-10-30T02:58:52.739Z,12.5
2022-10-30T02:59:58.938Z,12.4
2022-10-30T03:01:05.110Z,12.4
2022-10-30T03:02:11.297Z,12.4
2022-10-30T03:03:17.482Z,12.4
2022-10-30T03:04:23.657Z,12.4
2022-10-30T03:05:29.832Z,12.3
2022-10-30T03:06:36.009Z,12.2
2022-10-30T03:07:42.192Z,12.1
2022-10-30T03:08:47.414Z,12.2
2022-10-30T03:09:53.587Z,12.2
2022-10-30T03:10:59.749Z,12.2
2022-10-30T03:12:05.921Z,12.3
2022-10-30T03:13:12.099Z,12.4
2022-10-30T03:14:18.304Z,12.4
2022-10-30T03:15:24.459Z,12.4
2022-10-30T03:16:30.671Z,12.5
2022-10-30T03:17:36.828Z,12.6
2022-10-30T03:18:42.986Z,12.6
2022-10-30T03:19:49.248Z,12.6
2022-10-30T03:20:55.349Z,12.5
2022-10-30T03:22:01.563Z,12.4
2022-10-30T03:23:06.714Z,12.4
2022-10-30T03:24:12.899Z,12.3
2022-10-30T03:25:19.070Z,12.3
2022-10-30T03:26:25.245Z,12.3
2022-10-30T03:27:31.427Z,12.4
2022-10-30T03:28:37.621Z,12.4
2022-10-30T03:29:43.814Z,12.4
2022-10-30T03:30:49.957Z,12.3
2022-10-30T03:31:56.147Z,12.3
2022-10-30T03:33:02.335Z,12.4
2022-10-30T03:34:08.543Z,12.4
2022-10-30T03:35:14.776Z,12.4
2022-10-30T03:36:20.876Z,12.4
2022-10-30T03:37:26.066Z,12.4
2022-10-30T03:38:32.324Z,12.4
2022-10-30T03:39:38.521Z,12.5
2022-10-30T03:40:44.627Z,12.5
2022-10-30T03:41:50.813Z,12.4
2022-10-30T03:42:57.004Z,12.5
2022-10-30T03:44:03.180Z,12.4
2022-10-30T03:45:09.355Z,12.5
2022-10-30T03:46:15.551Z,12.6
2022-10-30T03:47:21.731Z,12.6
2022-10-30T03:48:27.909Z,12.6
2022-10-30T03:49:34.082Z,12.6
2022-10-30T03:50:40.269Z,12.6
2022-10-30T03:51:45.460Z,12.5
2022-10-30T03:52:51.667Z,12.5
2022-10-30T03:53:57.863Z,12.4
2022-10-30T03:55:04.049Z,12.4
2022-10-30T03:56:10.267Z,12.4
2022-10-30T03:57:16.377Z,12.3
2022-10-30T03:58:22.571Z,12.3
2022-10-30T03:59:28.777Z,12.3
2022-10-30T04:00:35.034Z,12.3
2022-10-30T04:01:41.147Z,12.3
2022-10-30T04:02:47.351Z,12.2
2022-10-30T04:03:53.522Z,12.3
2022-10-30T04:04:59.686Z,12.3
2022-10-30T04:06:04.893Z,12.2
2022-10-30T04:07:11.077Z,12.2
2022-10-30T04:08:17.272Z,12.1
2022-10-30T04:09:23.444Z,12.1
2022-10-30T04:10:29.755Z,12
2022-10-30T04:11:35.813Z,12
2022-10-30T04:12:42.009Z,12
2022-10-30T04:13:48.175Z,12
2022-10-30T04:14:54.363Z,11.9
2022-10-30T04:16:00.546Z,11.9
2022-10-30T04:17:06.736Z,11.8
2022-10-30T04:18:12.927Z,11.8
2022-10-30T04:19:19.100Z,11.9
2022-10-30T04:20:24.311Z,12
2022-10-30T04:21:30.491Z,12
2022-10-30T04:22:36.674Z,12
2022-10-30T04:23:42.862Z,12
2022-10-30T04:24:49.066Z,12
2022-10-30T04:25:55.244Z,11.9
2022-10-30T04:27:01.428Z,11.9
2022-10-30T04:28:07.618Z,12
2022-10-30T04:29:13.817Z,12
2022-10-30T04:30:19.997Z,11.9
2022-10-30T04:31:26.211Z,11.9
2022-10-30T04:32:32.435Z,11.9
2022-10-30T04:33:38.571Z,11.9
2022-10-30T04:34:43.794Z,11.9
2022-10-30T04:35:49.960Z,12
2022-10-30T04:36:56.146Z,12.1
2022-10-30T04:38:02.341Z,12.2
2022-10-30T04:39:08.531Z,12.2
2022-10-30T04:40:14.715Z,12.2
2022-10-30T04:41:20.950Z,12.2
2022-10-30T04:42:27.102Z,12.1
2022-10-30T04:43:33.275Z,12.1
2022-10-30T04:44:39.450Z,12
2022-10-30T04:45:45.666Z,12
2022-10-30T04:46:51.832Z,11.9
2022-10-30T04:47:58.013Z,11.8
2022-10-30T04:49:03.222Z,11.8
2022-10-30T04:50:09.413Z,11.9
2022-10-30T04:51:15.632Z,11.9
2022-10-30T04:52:21.817Z,11.9
2022-10-30T04:53:27.973Z,11.9
2022-10-30T04:54:34.168Z,11.8
2022-10-30T04:55:40.358Z,11.8
2022-10-30T04:56:46.544Z,11.9
2022-10-30T04:57:52.723Z,11.9
2022-10-30T04:58:58.906Z,11.8
2022-10-30T05:00:05.109Z,11.7
2022-10-30T05:01:11.290Z,11.5
2022-10-30T05:02:17.472Z,11.4
2022-10-30T05:03:22.691Z,11.3
2022-10-30T05:04:28.844Z,11.3
2022-10-30T05:05:35.028Z,11.2
2022-10-30T05:06:41.209Z,11.1
2022-10-30T05:07:47.402Z,11.1
2022-10-30T05:08:53.590Z,11.4
2022-10-30T05:09:59.782Z,11.8
2022-10-30T05:11:05.973Z,11.9
2022-10-30T05:12:12.175Z,12.1
2022-10-30T05:13:18.340Z,12.1
2022-10-30T05:14:24.536Z,12.2
2022-10-30T05:15:30.723Z,12.3
2022-10-30T05:16:36.919Z,12.3
2022-10-30T05:17:42.116Z,12.3
2022-10-30T05:18:48.304Z,12.4
2022-10-30T05:19:54.489Z,12.4
2022-10-30T05:21:00.676Z,12.4
2022-10-30T05:22:06.864Z,12.3
2022-10-30T05:23:13.055Z,12.3
2022-10-30T05:24:19.237Z,12.2
2022-10-30T05:25:25.429Z,12.2
2022-10-30T05:26:31.622Z,12.1
2022-10-30T05:27:37.800Z,12.1
2022-10-30T05:28:43.979Z,12
2022-10-30T05:29:50.167Z,12.1
2022-10-30T05:30:56.355Z,12.2
2022-10-30T05:32:01.579Z,12.1
2022-10-30T05:33:07.737Z,12
2022-10-30T05:34:13.904Z,12
2022-10-30T05:35:20.134Z,11.9
2022-10-30T05:36:26.274Z,11.8
2022-10-30T05:37:32.442Z,11.7
2022-10-30T05:38:38.637Z,11.7
2022-10-30T05:39:44.821Z,11.5
2022-10-30T05:40:51.018Z,11.3
2022-10-30T05:41:57.233Z,11.3
2022-10-30T05:43:03.407Z,11.3
2022-10-30T05:44:09.551Z,11.5
2022-10-30T05:45:15.744Z,11.7
2022-10-30T05:46:20.934Z,11.8
2022-10-30T05:47:27.116Z,11.7
2022-10-30T05:48:33.300Z,11.7
2022-10-30T05:49:39.484Z,11.7
2022-10-30T05:50:45.700Z,11.7
2022-10-30T05:51:51.878Z,11.6
2022-10-30T05:52:57.070Z,11.9
2022-10-30T05:54:03.261Z,12
2022-10-30T05:55:09.449Z,12
2022-10-30T05:56:15.632Z,12
2022-10-30T05:57:21.821Z,11.9
2022-10-30T05:58:28.015Z,11.8
2022-10-30T05:59:34.220Z,11.9
2022-10-30T06:00:40.417Z,11.9
2022-10-30T06:01:46.563Z,12
2022-10-30T06:02:52.800Z,11.9
2022-10-30T06:03:58.920Z,11.9
2022-10-30T06:05:05.103Z,11.9
2022-10-30T06:06:11.280Z,11.8
2022-10-30T06:07:17.483Z,11.8
2022-10-30T06:08:22.661Z,11.8
2022-10-30T06:09:28.857Z,11.7
2022-10-30T06:10:35.026Z,11.7
2022-10-30T06:11:41.221Z,11.7
2022-10-30T06:12:47.417Z,11.7
2022-10-30T06:13:53.603Z,11.7
2022-10-30T06:14:59.775Z,11.7
2022-10-30T06:16:05.971Z,11.7
2022-10-30T06:17:12.154Z,11.8
2022-10-30T06:18:18.380Z,11.8
2022-10-30T06:19:24.529Z,11.8
2022-10-30T06:20:30.718Z,11.8
2022-10-30T06:21:36.897Z,11.9
2022-10-30T06:22:42.091Z,11.9
2022-10-30T06:23:48.262Z,12
2022-10-30T06:24:54.449Z,12
2022-10-30T06:26:00.645Z,12
2022-10-30T06:27:06.874Z,11.9
2022-10-30T06:28:13.015Z,11.9
2022-10-30T06:29:19.226Z,11.9
2022-10-30T06:30:25.378Z,11.9
2022-10-30T06:31:31.571Z,11.9
2022-10-30T06:32:37.764Z,11.9
2022-10-30T06:33:43.957Z,11.8
2022-10-30T06:34:50.125Z,11.8
2022-10-30T06:35:56.322Z,11.8
2022-10-30T06:37:01.517Z,11.8
2022-10-30T06:38:07.690Z,11.8
2022-10-30T06:39:13.873Z,11.9
2022-10-30T06:40:20.055Z,11.9
2022-10-30T06:41:26.246Z,11.9
2022-10-30T06:42:32.420Z,11.9
2022-10-30T06:43:38.607Z,11.9
2022-10-30T06:44:44.820Z,11.9
2022-10-30T06:45:50.976Z,11.8
2022-10-30T06:46:57.156Z,11.8
2022-10-30T06:48:03.349Z,11.8
2022-10-30T06:49:09.516Z,11.8
2022-10-30T06:50:15.707Z,11.8
2022-10-30T06:51:20.922Z,11.8
2022-10-30T06:52:27.086Z,11.8
2022-10-30T06:53:33.256Z,11.8
2022-10-30T06:54:39.448Z,11.8
2022-10-30T06:55:45.625Z,11.7
2022-10-30T06:56:51.808Z,11.7
2022-10-30T06:57:57.992Z,11.7
2022-10-30T06:59:04.169Z,11.7
2022-10-30T07:00:10.351Z,11.7
2022-10-30T07:01:16.529Z,11.7
2022-10-30T07:02:22.706Z,11.7
2022-10-30T07:03:28.877Z,11.7
2022-10-30T07:04:35.051Z,11.7
2022-10-30T07:05:40.270Z,11.7
2022-10-30T07:06:46.505Z,11.7
2022-10-30T07:07:52.687Z,11.6
2022-10-30T07:08:58.793Z,11.7
2022-10-30T07:10:05.010Z,11.7
2022-10-30T07:11:11.180Z,11.8
2022-10-30T07:12:17.338Z,12.2
2022-10-30T07:13:23.516Z,12.9
2022-10-30T07:14:29.695Z,13.5
2022-10-30T07:15:35.866Z,13.8
2022-10-30T07:16:42.027Z,14.2
2022-10-30T07:17:48.262Z,14.4
2022-10-30T07:18:54.362Z,14.6
2022-10-30T07:19:59.543Z,14.8
2022-10-30T07:21:05.699Z,14.9
2022-10-30T07:22:11.859Z,14.9
2022-10-30T07:23:18.007Z,15.1
2022-10-30T07:24:24.157Z,15.4
2022-10-30T07:25:30.294Z,15.8
2022-10-30T07:26:36.459Z,16.1
2022-10-30T07:27:42.585Z,16.3
2022-10-30T07:28:48.694Z,16.3
2022-10-30T07:29:54.846Z,16.4
2022-10-30T07:31:00.940Z,16.6
2022-10-30T07:32:07.053Z,16.9
2022-10-30T07:33:13.181Z,17
2022-10-30T07:34:19.298Z,16.7
2022-10-30T07:35:25.396Z,16.1
2022-10-30T07:36:31.536Z,15.8
2022-10-30T07:37:37.620Z,15.5
2022-10-30T07:38:43.715Z,15.4
2022-10-30T07:39:49.827Z,15.2
2022-10-30T07:40:55.913Z,15
2022-10-30T07:42:02.025Z,14.8
2022-10-30T07:43:08.173Z,14.7
2022-10-30T07:44:14.243Z,14.5
2022-10-30T07:45:20.373Z,14.2
2022-10-30T07:46:26.479Z,14.1
2022-10-30T07:47:32.606Z,14.4
2022-10-30T07:48:38.752Z,14.6
2022-10-30T07:49:44.853Z,14.7
2022-10-30T07:50:51.019Z,14.8
2022-10-30T07:51:57.132Z,14.9
2022-10-30T07:53:03.232Z,15
2022-10-30T07:54:09.379Z,15.1
2022-10-30T07:55:14.533Z,15.3
2022-10-30T07:56:20.626Z,15.4
2022-10-30T07:57:26.771Z,15.2
2022-10-30T07:58:32.888Z,15.1
2022-10-30T07:59:39.040Z,15.1
2022-10-30T08:00:45.142Z,15.1
2022-10-30T08:01:51.269Z,15.2
2022-10-30T08:02:57.406Z,15.3
2022-10-30T08:04:03.543Z,15.4
2022-10-30T08:05:09.679Z,15.5
2022-10-30T08:06:15.815Z,15.6
2022-10-30T08:07:21.925Z,15.7
2022-10-30T08:08:28.073Z,15.7
2022-10-30T08:09:34.197Z,15.8
2022-10-30T08:10:40.325Z,15.9
2022-10-30T08:11:46.460Z,16
2022-10-30T08:12:52.575Z,16
2022-10-30T08:13:57.728Z,16
2022-10-30T08:15:03.901Z,16
2022-10-30T08:16:10.010Z,16
2022-10-30T08:17:16.105Z,16
2022-10-30T08:18:22.239Z,16.2
2022-10-30T08:19:28.383Z,16.3
2022-10-30T08:20:34.509Z,16.4
2022-10-30T08:21:40.637Z,16.4
2022-10-30T08:22:46.781Z,16.5
2022-10-30T08:23:52.968Z,16.6
2022-10-30T08:24:59.014Z,16.6
2022-10-30T08:26:05.144Z,16.6
2022-10-30T08:27:11.319Z,16.7
2022-10-30T08:28:17.485Z,16.8
2022-10-30T08:29:23.527Z,16.8
2022-10-30T08:30:29.661Z,16.9
2022-10-30T08:31:35.814Z,17
2022-10-30T08:32:41.937Z,17.1
2022-10-30T08:33:48.044Z,17.2
2022-10-30T08:34:54.159Z,17.3
2022-10-30T08:36:00.297Z,17.3
2022-10-30T08:37:05.456Z,17.3
2022-10-30T08:38:11.579Z,17.5
2022-10-30T08:39:17.674Z,17.7
2022-10-30T08:40:23.881Z,17.8
2022-10-30T08:41:29.943Z,17.9
2022-10-30T08:42:36.062Z,18
2022-10-30T08:43:42.184Z,18
2022-10-30T08:44:48.305Z,18.1
2022-10-30T08:45:54.409Z,18.2
2022-10-30T08:47:00.559Z,18.2
2022-10-30T08:48:06.756Z,18.3
2022-10-30T08:49:12.768Z,18.5
2022-10-30T08:50:18.888Z,18.6
2022-10-30T08:51:25.016Z,18.8
2022-10-30T08:52:31.164Z,19
2022-10-30T08:53:37.256Z,19.6
2022-10-30T08:54:43.368Z,20.2
2022-10-30T08:55:49.492Z,20.9
2022-10-30T08:56:55.570Z,21.4
2022-10-30T08:58:01.658Z,21.6
2022-10-30T08:59:07.750Z,21.8
2022-10-30T09:00:13.838Z,22
2022-10-30T09:01:19.981Z,22.1
2022-10-30T09:02:26.029Z,22.4
2022-10-30T09:03:32.119Z,22.5
2022-10-30T09:04:38.204Z,22.4
2022-10-30T09:05:44.294Z,22.6
2022-10-30T09:06:50.386Z,22.8
2022-10-30T09:07:56.432Z,22.9
2022-10-30T09:09:02.496Z,22.8
2022-10-30T09:10:08.604Z,22.6
2022-10-30T09:11:14.688Z,22.6
2022-10-30T09:12:20.777Z,22.5
2022-10-30T09:13:26.798Z,22.4
2022-10-30T09:14:32.839Z,22.6
2022-10-30T09:15:38.995Z,22.9
2022-10-30T09:16:45.053Z,22.4
2022-10-30T09:17:51.125Z,22
2022-10-30T09:18:57.274Z,22.4
2022-10-30T09:20:03.414Z,22.7
2022-10-30T09:21:09.577Z,23
2022-10-30T09:22:15.726Z,23.2
2022-10-30T09:23:21.832Z,23.3
2022-10-30T09:24:27.951Z,23.5
2022-10-30T09:25:34.082Z,23.6
2022-10-30T09:26:40.314Z,23.4
2022-10-30T09:27:46.394Z,23.3
2022-10-30T09:28:52.534Z,23.3
2022-10-30T09:29:58.676Z,23.1
2022-10-30T09:31:04.822Z,23
2022-10-30T09:32:11.078Z,22.9
2022-10-30T09:33:16.287Z,23.1
2022-10-30T09:34:22.350Z,23
2022-10-30T09:35:28.420Z,22.9
2022-10-30T09:36:34.484Z,22.9
2022-10-30T09:37:40.576Z,23.1
2022-10-30T09:38:46.707Z,23.1
2022-10-30T09:39:52.686Z,23.4
2022-10-30T09:40:58.763Z,23.4
2022-10-30T09:42:04.833Z,23.6
2022-10-30T09:43:10.912Z,23.7
2022-10-30T09:44:16.974Z,23.6
2022-10-30T09:45:23.051Z,23.7
2022-10-30T09:46:29.113Z,23.7
2022-10-30T09:47:35.215Z,23.7
2022-10-30T09:48:41.245Z,23.7
2022-10-30T09:49:47.314Z,23.9
2022-10-30T09:50:53.388Z,24
2022-10-30T09:51:59.475Z,23.8
2022-10-30T09:53:05.538Z,23.2
2022-10-30T09:54:11.611Z,23.4
2022-10-30T09:55:17.752Z,23.6
2022-10-30T09:56:23.761Z,23.7
2022-10-30T09:57:29.848Z,23.9
2022-10-30T09:58:35.941Z,24.1
2022-10-30T09:59:41.980Z,24.3
2022-10-30T10:00:48.138Z,24.5
2022-10-30T10:01:54.283Z,24.6
2022-10-30T10:03:00.439Z,24.4
2022-10-30T10:04:06.573Z,24.2
2022-10-30T10:05:12.736Z,23.8
2022-10-30T10:06:18.852Z,23.3
2022-10-30T10:07:25.027Z,23.1
2022-10-30T10:08:31.153Z,23.3
2022-10-30T10:09:37.279Z,23.3
2022-10-30T10:10:43.422Z,23.2
2022-10-30T10:11:49.580Z,23.1
2022-10-30T10:12:55.687Z,23.4
2022-10-30T10:14:01.836Z,23.4
2022-10-30T10:15:08.091Z,23.3
2022-10-30T10:16:13.407Z,23.4
2022-10-30T10:17:19.511Z,23.6
2022-10-30T10:18:25.667Z,23.7
2022-10-30T10:19:31.815Z,23.9
2022-10-30T10:20:37.917Z,24
2022-10-30T10:21:44.049Z,23.5
2022-10-30T10:22:50.302Z,23.2
2022-10-30T10:23:56.337Z,23
2022-10-30T10:25:02.458Z,22.9
2022-10-30T10:26:08.591Z,23
2022-10-30T10:27:14.725Z,22.8
2022-10-30T10:28:20.862Z,23.1
2022-10-30T10:29:26.995Z,23.6
2022-10-30T10:30:33.136Z,23.8
2022-10-30T10:31:39.249Z,23.7
2022-10-30T10:32:45.401Z,23.8
2022-10-30T10:33:51.550Z,23.6
2022-10-30T10:34:57.645Z,23.5
2022-10-30T10:36:03.821Z,23.5
2022-10-30T10:37:09.913Z,23.9
2022-10-30T10:38:16.086Z,24.3
2022-10-30T10:39:22.168Z,24.6
2022-10-30T10:40:28.330Z,24.9
2022-10-30T10:41:34.484Z,25.1
2022-10-30T10:42:40.576Z,25
2022-10-30T10:43:46.822Z,25.3
2022-10-30T10:44:52.023Z,24.8
2022-10-30T10:45:58.057Z,23.9
2022-10-30T10:47:04.106Z,23.4
2022-10-30T10:48:10.155Z,23.8
2022-10-30T10:49:16.213Z,24
2022-10-30T10:50:22.237Z,24.2
2022-10-30T10:51:28.281Z,24.3
2022-10-30T10:52:34.331Z,24.7
2022-10-30T10:53:40.384Z,24.9
2022-10-30T10:54:46.410Z,25
2022-10-30T10:55:52.424Z,25.1
2022-10-30T10:56:58.552Z,25.1
2022-10-30T10:58:04.500Z,25.4
2022-10-30T10:59:10.549Z,25.6
2022-10-30T11:00:16.599Z,25.3
2022-10-30T11:01:22.605Z,25.3
2022-10-30T11:02:28.637Z,25.3
2022-10-30T11:03:34.684Z,25.4
2022-10-30T11:04:40.707Z,25.2
2022-10-30T11:05:46.737Z,24.9
2022-10-30T11:06:52.802Z,25.1
2022-10-30T11:07:58.798Z,25
2022-10-30T11:09:04.856Z,25.2
2022-10-30T11:10:10.856Z,24.9
2022-10-30T11:11:16.915Z,24.4
2022-10-30T11:12:23.038Z,24
2022-10-30T11:13:29.111Z,24.2
2022-10-30T11:14:35.198Z,24.1
2022-10-30T11:15:41.335Z,24.4
2022-10-30T11:16:47.418Z,24.8
2022-10-30T11:17:53.602Z,24.8
2022-10-30T11:18:59.648Z,24.4
2022-10-30T11:20:05.760Z,24.7
2022-10-30T11:21:11.829Z,25.2
2022-10-30T11:22:17.937Z,25.4
2022-10-30T11:23:24.038Z,25.2
2022-10-30T11:24:30.137Z,25.4
2022-10-30T11:25:36.236Z,25.5
2022-10-30T11:26:42.473Z,25.8
2022-10-30T11:27:48.709Z,26.1
2022-10-30T11:28:54.949Z,26.2
2022-10-30T11:30:01.169Z,25.7
2022-10-30T11:31:07.373Z,25.6
2022-10-30T11:32:13.618Z,25.6
2022-10-30T11:33:19.832Z,25.7
2022-10-30T11:34:26.049Z,25.9
2022-10-30T11:35:32.370Z,26
2022-10-30T11:36:38.505Z,25.7
2022-10-30T11:37:44.716Z,25.5
2022-10-30T11:38:50.947Z,25.4
2022-10-30T11:39:57.175Z,25.3
2022-10-30T11:41:03.650Z,25.5
2022-10-30T11:42:09.021Z,25.8
2022-10-30T11:43:15.039Z,25.9
2022-10-30T11:44:21.038Z,26
2022-10-30T11:45:27.057Z,26
2022-10-30T11:46:33.081Z,25.8
2022-10-30T11:47:39.096Z,25.8
2022-10-30T11:48:45.125Z,25.9
2022-10-30T11:49:51.164Z,26.1
2022-10-30T11:50:57.160Z,26.3
2022-10-30T11:52:03.178Z,26.5
2022-10-30T11:53:09.265Z,26.4
2022-10-30T11:54:15.270Z,26
2022-10-30T11:55:21.204Z,25.8
2022-10-30T11:56:27.223Z,26
2022-10-30T11:57:33.219Z,26.2
2022-10-30T11:58:39.241Z,26.2
2022-10-30T11:59:45.222Z,26.5
2022-10-30T12:00:51.221Z,26.5
2022-10-30T12:01:57.227Z,26.5
2022-10-30T12:03:03.260Z,26.4
2022-10-30T12:04:09.277Z,26.5
2022-10-30T12:05:15.302Z,26.6
2022-10-30T12:06:21.271Z,26.7
2022-10-30T12:07:27.341Z,26.8
2022-10-30T12:08:33.267Z,26.7
2022-10-30T12:09:39.347Z,26.5
2022-10-30T12:10:45.431Z,26.5
2022-10-30T12:11:51.507Z,26.6
2022-10-30T12:12:57.587Z,26.7
2022-10-30T12:14:03.680Z,26.6
2022-10-30T12:15:09.756Z,26.7
2022-10-30T12:16:15.853Z,26.5
2022-10-30T12:17:21.911Z,26.7
2022-10-30T12:18:27.997Z,26.4
2022-10-30T12:19:34.086Z,26.2
2022-10-30T12:20:40.145Z,26.4
2022-10-30T12:21:46.278Z,26.2
2022-10-30T12:22:52.317Z,26.1
2022-10-30T12:23:58.511Z,26.2
2022-10-30T12:25:04.742Z,26.1
2022-10-30T12:26:10.919Z,25.7
2022-10-30T12:27:17.123Z,25.7
2022-10-30T12:28:23.341Z,25.7
2022-10-30T12:29:29.541Z,25.9
2022-10-30T12:30:35.749Z,25.9
2022-10-30T12:31:41.939Z,25.9
2022-10-30T12:32:48.151Z,25.9
2022-10-30T12:33:54.430Z,26.1
2022-10-30T12:35:00.626Z,26.3
2022-10-30T12:36:06.819Z,26.4
2022-10-30T12:37:12.962Z,26.3
2022-10-30T12:39:47.893Z,25.6
2022-10-30T12:40:53.181Z,24.8
2022-10-30T12:41:59.199Z,24.7
2022-10-30T12:43:05.223Z,24.6
2022-10-30T12:44:11.232Z,24.8
2022-10-30T12:45:17.264Z,25
2022-10-30T12:46:23.235Z,24.8
2022-10-30T12:47:29.281Z,24.7
2022-10-30T12:48:35.306Z,24.6
2022-10-30T12:49:41.266Z,24.4
2022-10-30T12:50:47.272Z,24.4
2022-10-30T12:51:53.288Z,24.4
2022-10-30T12:52:59.297Z,24.6
2022-10-30T12:54:05.347Z,24.7
2022-10-30T12:55:11.306Z,24.8
2022-10-30T12:56:17.366Z,25
2022-10-30T12:57:23.353Z,25
2022-10-30T12:58:29.374Z,25.1
2022-10-30T12:59:35.366Z,25.2
2022-10-30T13:00:41.369Z,25.1
2022-10-30T13:01:47.401Z,25.2
2022-10-30T13:02:53.430Z,25.2
2022-10-30T13:03:59.409Z,25.2
2022-10-30T13:05:05.415Z,24.8
2022-10-30T13:06:11.431Z,24.8
2022-10-30T13:07:17.458Z,24.9
2022-10-30T13:08:23.540Z,24.8
2022-10-30T13:09:29.713Z,24.8
2022-10-30T13:10:35.742Z,24.6
2022-10-30T13:11:41.844Z,24.6
2022-10-30T13:12:47.918Z,24.6
2022-10-30T13:13:54.029Z,24.5
2022-10-30T13:15:00.105Z,24.4
2022-10-30T13:16:06.241Z,24.3
2022-10-30T13:17:12.290Z,24.3
2022-10-30T13:18:18.441Z,24.1
2022-10-30T13:19:24.480Z,23.9
2022-10-30T13:20:30.605Z,23.7
2022-10-30T13:21:36.674Z,23.5
2022-10-30T13:22:42.908Z,23.6
2022-10-30T13:23:49.128Z,23.7
2022-10-30T13:24:55.365Z,23.7
2022-10-30T13:26:01.583Z,23.7
2022-10-30T13:27:07.809Z,23.8
2022-10-30T13:28:14.068Z,23.6
2022-10-30T13:29:20.273Z,23.5
2022-10-30T13:30:25.465Z,23.5
2022-10-30T13:31:31.501Z,23.5
2022-10-30T13:32:37.554Z,23.6
2022-10-30T13:33:43.548Z,23.6
2022-10-30T13:34:49.581Z,23.6
2022-10-30T13:35:55.616Z,23.6
2022-10-30T13:37:01.656Z,23.5
2022-10-30T13:38:07.754Z,23.5
2022-10-30T13:39:13.731Z,23.6
2022-10-30T13:40:19.763Z,23.6
2022-10-30T13:41:25.814Z,23.5
2022-10-30T13:42:31.839Z,23.5
2022-10-30T13:43:37.888Z,23.4
2022-10-30T13:44:43.928Z,23.4
2022-10-30T13:45:49.980Z,23.4
2022-10-30T13:46:56.031Z,23.4
2022-10-30T13:48:02.075Z,23.3
2022-10-30T13:49:08.114Z,23.3
2022-10-30T13:50:14.156Z,23.3
2022-10-30T13:51:20.205Z,23.2
2022-10-30T13:52:26.251Z,23.2
2022-10-30T13:53:32.305Z,23.2
2022-10-30T13:54:38.347Z,23.2
2022-10-30T13:55:44.414Z,23.1
2022-10-30T13:56:50.442Z,23.1
2022-10-30T13:57:56.578Z,23
2022-10-30T13:59:02.721Z,23
2022-10-30T14:00:08.862Z,23
2022-10-30T14:01:14.972Z,23
2022-10-30T14:02:21.097Z,23
2022-10-30T14:03:27.234Z,23
2022-10-30T14:04:33.367Z,22.9
2022-10-30T14:05:39.516Z,22.9
2022-10-30T14:06:45.626Z,22.9
2022-10-30T14:07:51.762Z,22.8
2022-10-30T14:08:57.890Z,22.8
2022-10-30T14:10:04.040Z,22.8
2022-10-30T14:11:10.170Z,22.7
2022-10-30T14:12:16.417Z,22.7
2022-10-30T14:13:21.632Z,22.7
2022-10-30T14:14:27.702Z,22.7
2022-10-30T14:15:33.773Z,22.6
2022-10-30T14:16:39.852Z,22.6
2022-10-30T14:17:45.929Z,22.6
2022-10-30T14:18:52.001Z,22.5
2022-10-30T14:19:57.996Z,22.5
2022-10-30T14:21:04.050Z,22.5
2022-10-30T14:22:10.136Z,22.4
2022-10-30T14:23:16.169Z,22.4
2022-10-30T14:24:22.226Z,22.4
2022-10-30T14:25:28.281Z,22.3
2022-10-30T14:26:34.339Z,22.3
2022-10-30T14:27:40.401Z,22.3
2022-10-30T14:28:46.488Z,22.2
2022-10-30T14:29:52.547Z,22.1
2022-10-30T14:30:58.591Z,22
2022-10-30T14:32:04.669Z,22
2022-10-30T14:33:10.738Z,21.9
2022-10-30T14:34:16.787Z,21.8
2022-10-30T14:35:22.856Z,21.7
2022-10-30T14:36:28.921Z,21.6
2022-10-30T14:37:34.996Z,21.6
2022-10-30T14:38:41.115Z,21.5
2022-10-30T14:39:47.137Z,21.4
2022-10-30T14:40:53.301Z,21.2
2022-10-30T14:41:59.426Z,21.1
2022-10-30T14:43:05.577Z,21
2022-10-30T14:44:11.755Z,21
2022-10-30T14:45:17.883Z,20.8
2022-10-30T14:46:24.015Z,20.8